• Join FlightAware (Why Join?)
  • Login
  • US Flag 
06:47AM EST


 

Airport Tracker/Info


-or-


 

Live Flight TrackerFlight Track Log ✈ N351EF ✈ 13-Sep-2013 ✈ KAPC - KEAU

Flight Track Log - Related Links

Times and Time Zones

All times are in EDT time to prevent confusion due to time zone crossing. See the N351EF flight status page for this flight to view local times or setup timezone preferences in your user account.

Time Position Orientation Groundspeed Altitude Reporting Facility
EDT Latitude Longitude Course Direction KTS MPH feet Rate Location/Type
04:18PM 38.1819 -122.3022 65° Northeast 192 221 1,600  Level Oakland Center
04:19PM 38.1953 -122.3644 285° West 229 264 5,300 3,120 Climbing Oakland Center
04:20PM 38.2469 -122.4058 328° Northwest 236 272 8,000 2,220 Climbing Oakland Center
04:21PM 38.3361 -122.4086 359° North 265 305 9,900 2,220 Climbing Oakland Center
04:22PM 38.5192 -121.4747 63° Northeast  Level Estimated
04:22PM 38.4194 -122.3972 North 293 337 12,600  Level Oakland Center
04:23PM 38.5696 -121.3397 63° Northeast  Level Estimated
04:23PM 38.5108 -122.3583 18° North 342 394 13,000  Level Oakland Center
04:24PM 38.6200 -121.2046 65° Northeast  Level Estimated
04:25PM 38.5564 -122.2428 63° Northeast 350 403 15,700  Level Oakland Center
04:26PM 38.5944 -122.1294 67° East 344 396 17,800 2,340 Climbing Oakland Center
04:27PM 38.6400 -122.0139 63° Northeast 354 407 20,500 2,160 Climbing Oakland Center
04:28PM 38.6858 -121.8950 64° Northeast 365 420 22,300 1,680 Climbing Oakland Center
04:29PM 38.7347 -121.7717 63° Northeast 379 436 24,000 1,800 Climbing Oakland Center
04:30PM 38.7869 -121.6444 62° Northeast 394 453 26,000 1,980 Climbing Oakland Center
04:31PM 38.8500 -121.4911 62° Northeast 400 460 28,200 1,680 Climbing Oakland Center
04:32PM 38.9036 -121.3603 62° Northeast 407 468 29,500 1,260 Climbing Oakland Center
04:33PM 38.9578 -121.2244 63° Northeast 421 484 30,900 1,260 Climbing Oakland Center
04:34PM 39.0131 -121.0869 63° Northeast 428 493 32,200 1,140 Climbing Oakland Center
04:35PM 39.0675 -120.9486 63° Northeast 432 497 33,300 1,080 Climbing Oakland Center
04:36PM 39.1242 -120.8094 62° Northeast 437 503 34,500 780 Climbing Oakland Center
04:37PM 39.1786 -120.6689 63° Northeast 438 504 35,000 300 Climbing Oakland Center
04:38PM 39.2364 -120.5233 63° Northeast 452 520 35,200 480 Climbing Oakland Center
04:39PM 39.2933 -120.3756 63° Northeast 459 528 36,100 840 Climbing Oakland Center
04:40PM 39.3611 -120.2022 63° Northeast 453 521 37,000 720 Climbing Oakland Center
04:41PM 39.4200 -120.0583 62° Northeast 454 522 37,600 480 Climbing Oakland Center
04:42PM 39.4731 -119.9169 64° Northeast 448 516 38,100 480 Climbing Oakland Center
04:43PM 39.5286 -119.7722 64° Northeast 446 513 38,700 540 Climbing Oakland Center
04:44PM 39.5839 -119.6286 63° Northeast 446 513 39,300 540 Climbing Oakland Center
04:45PM 39.6369 -119.4875 64° Northeast 439 505 39,900 480 Climbing Oakland Center
04:46PM 39.6925 -119.3447 63° Northeast 446 513 40,400 420 Climbing Oakland Center
04:47PM 39.7442 -119.2056 64° Northeast 429 494 40,800 240 Climbing Oakland Center
04:48PM 39.7964 -119.0647 64° Northeast 428 493 41,000 60 Climbing Oakland Center
04:49PM 39.8600 -118.8953 64° Northeast 432 497 41,000  Level Oakland Center
04:50PM 39.9139 -118.7506 64° Northeast 439 505 41,000  Level Oakland Center
04:51PM 39.9667 -118.6042 65° Northeast 442 509 41,000  Level Oakland Center
04:52PM 40.0206 -118.4569 64° Northeast 445 512 41,000  Level Oakland Center
04:53PM 40.0744 -118.3083 65° Northeast 450 518 41,000  Level Oakland Center
04:54PM 40.1281 -118.1614 64° Northeast 449 517 41,000  Level Oakland Center
04:55PM 40.1814 -118.0128 65° Northeast 450 518 41,000  Level Oakland Center
04:56PM 40.2339 -117.8664 65° Northeast 445 512 41,000  Level Oakland Center
04:57PM 40.2758 -117.7506 65° Northeast 443 510 41,000  Level Salt Lake Center
04:58PM 40.3342 -117.5883 65° Northeast 440 506 41,000  Level Salt Lake Center
04:59PM 40.3847 -117.4481 65° Northeast 443 510 41,000  Level Salt Lake Center
05:00PM 40.4433 -117.2828 65° Northeast 446 513 41,000  Level Salt Lake Center
05:01PM 40.4933 -117.1406 65° Northeast 445 512 41,000  Level Salt Lake Center
05:02PM 40.5447 -116.9975 65° Northeast 446 513 41,000  Level Salt Lake Center
05:03PM 40.5981 -116.8272 68° East 444 511 41,000  Level Salt Lake Center
05:04PM 40.6406 -116.6817 69° East 442 509 41,000  Level Salt Lake Center
05:05PM 40.6900 -116.5111 69° East 444 511 41,000  Level Salt Lake Center
05:06PM 40.7342 -116.3661 68° East 444 511 41,000  Level Salt Lake Center
05:08PM 40.7825 -116.1953 69° East 446 513 41,000  Level Salt Lake Center
05:09PM 40.8244 -116.0492 69° East 447 514 41,000  Level Salt Lake Center
05:10PM 40.8678 -115.9033 69° East 445 512 41,000  Level Salt Lake Center
05:11PM 40.9147 -115.7297 70° East 447 514 41,000  Level Salt Lake Center
05:12PM 40.9564 -115.5831 69° East 447 514 41,000  Level Salt Lake Center
05:13PM 41.0047 -115.4094 70° East 449 517 41,000  Level Salt Lake Center
05:14PM 41.0481 -115.2614 69° East 450 518 41,000  Level Salt Lake Center
05:15PM 41.0953 -115.0889 70° East 447 514 41,000  Level Salt Lake Center
05:16PM 41.1372 -114.9408 69° East 449 517 41,000  Level Salt Lake Center
05:17PM 41.1803 -114.7817 70° East 448 516 41,000  Level Salt Lake Center
05:18PM 41.2222 -114.6267 70° East 448 516 41,000  Level Salt Lake Center
05:19PM 41.2653 -114.4711 70° East 449 517 41,000  Level Salt Lake Center
05:20PM 41.3069 -114.3150 70° East 449 517 41,000  Level Salt Lake Center
05:21PM 41.3583 -114.1278 70° East 449 517 41,000  Level Salt Lake Center
05:22PM 41.3986 -113.9711 71° East 449 517 41,000  Level Salt Lake Center
05:23PM 41.4417 -113.8156 70° East 448 516 41,000  Level Salt Lake Center
05:24PM 41.4828 -113.6581 71° East 449 517 41,000  Level Salt Lake Center
05:25PM 41.5231 -113.5014 71° East 448 516 41,000  Level Salt Lake Center
05:26PM 41.5722 -113.3136 71° East 448 516 41,000  Level Salt Lake Center
05:27PM 41.6231 -113.1242 70° East 450 518 41,000  Level Salt Lake Center
05:28PM 41.6636 -112.9639 71° East 455 524 41,000  Level Salt Lake Center
05:29PM 41.7028 -112.8067 72° East 449 517 41,000  Level Salt Lake Center
05:30PM 41.7411 -112.6503 72° East 443 510 41,000  Level Salt Lake Center
05:31PM 41.7806 -112.4931 71° East 443 510 41,000  Level Salt Lake Center
05:32PM 41.8203 -112.3358 71° East 445 512 41,000  Level Salt Lake Center
05:34PM 41.8581 -112.1803 72° East 441 507 41,000  Level Salt Lake Center
05:35PM 41.9050 -111.9928 71° East 441 507 41,000  Level Salt Lake Center
05:36PM 41.9436 -111.8358 72° East 444 511 41,000  Level Salt Lake Center
05:37PM 41.9811 -111.6797 72° East 440 506 41,000  Level Salt Lake Center
05:38PM 42.0194 -111.5256 71° East 437 503 41,000  Level Salt Lake Center
05:39PM 42.0564 -111.3694 72° East 438 504 41,000  Level Salt Lake Center
05:40PM 42.0933 -111.2119 72° East 441 507 41,000  Level Salt Lake Center
05:41PM 42.1306 -111.0564 72° East 438 504 41,000  Level Salt Lake Center
05:42PM 42.1736 -110.8747 72° East 445 512 41,000  Level Salt Lake Center
05:43PM 42.2144 -110.6975 73° East 444 511 41,000  Level Salt Lake Center
05:44PM 42.2494 -110.5453 73° East 444 511 41,000  Level Salt Lake Center
05:45PM 42.2850 -110.3908 73° East 448 516 41,000  Level Salt Lake Center
05:46PM 42.3256 -110.2114 73° East 449 517 41,000  Level Salt Lake Center
05:47PM 42.3600 -110.0556 73° East 451 519 41,000  Level Salt Lake Center
05:48PM 42.4008 -109.8744 73° East 450 518 41,000  Level Salt Lake Center
05:49PM 42.4361 -109.7192 73° East 451 519 41,000  Level Salt Lake Center
05:50PM 42.4753 -109.5375 74° East 450 518 41,000  Level Salt Lake Center
05:51PM 42.5103 -109.3811 73° East 451 519 41,000  Level Salt Lake Center
05:52PM 42.5444 -109.2239 74° East 453 521 41,000  Level Salt Lake Center
05:53PM 42.5847 -109.0417 73° East 451 519 41,000  Level Salt Lake Center
05:54PM 42.6175 -108.8828 74° East 454 522 41,000  Level Salt Lake Center
05:55PM 42.6572 -108.6992 74° East 454 522 41,000  Level Salt Lake Center
05:56PM 42.6897 -108.5408 74° East 454 522 41,000  Level Salt Lake Center
05:57PM 42.7281 -108.3561 74° East 454 522 41,000  Level Salt Lake Center
05:58PM 42.7611 -108.1981 74° East 455 524 41,000  Level Salt Lake Center
05:59PM 42.7933 -108.0381 75° East 456 525 41,000  Level Salt Lake Center
06:00PM 42.8306 -107.8519 75° East 456 525 41,000  Level Salt Lake Center
06:01PM 42.8625 -107.6939 75° East 454 522 41,000  Level Salt Lake Center
06:02PM 42.9000 -107.5089 74° East 453 521 41,000  Level Salt Lake Center
06:03PM 42.9297 -107.3522 75° East 447 514 41,000  Level Salt Lake Center
06:04PM 42.9667 -107.1664 75° East 450 518 41,000  Level Salt Lake Center
06:05PM 42.9986 -107.0025 75° East 448 516 41,000  Level Salt Lake Center
06:07PM 43.0303 -106.8431 75° East 448 516 41,000  Level Salt Lake Center
06:08PM 43.0644 -106.6600 76° East 447 514 41,000  Level Salt Lake Center
06:09PM 43.0953 -106.5033 75° East 446 513 41,000  Level Salt Lake Center
06:10PM 43.1239 -106.3442 76° East 450 518 41,000  Level Salt Lake Center
06:11PM 43.1603 -106.1583 75° East 452 520 41,000  Level Salt Lake Center
06:12PM 43.1886 -105.9983 76° East 452 520 41,000  Level Salt Lake Center
06:13PM 43.2225 -105.8133 76° East 448 516 41,000  Level Salt Lake Center
06:14PM 43.2608 -105.5994 76° East 450 518 41,000  Level Denver Center
06:15PM 43.2953 -105.4117 76° East 454 522 41,000  Level Denver Center
06:16PM 43.3325 -105.1975 76° East 452 520 41,000  Level Denver Center
06:17PM 43.3606 -105.0372 76° East 451 519 41,000  Level Denver Center
06:18PM 43.3883 -104.8772 77° East 449 517 41,000  Level Denver Center
06:19PM 43.4211 -104.6881 77° East 452 520 41,000  Level Denver Center
06:20PM 43.4483 -104.5269 77° East 451 519 41,000  Level Denver Center
06:22PM 43.4803 -104.3361 77° East 455 524 41,000  Level Denver Center
06:23PM 43.5072 -104.1753 77° East 452 520 41,000  Level Denver Center
06:24PM 43.5389 -103.9856 77° East 453 521 41,000  Level Denver Center
06:25PM 43.5656 -103.8222 77° East 455 524 41,000  Level Denver Center
06:26PM 43.5875 -103.6864 77° East 456 525 41,000  Level Denver Center
06:27PM 43.6219 -103.4683 78° East 457 526 41,000  Level Denver Center
06:28PM 43.6481 -103.3053 77° East 456 525 41,000  Level Denver Center
06:29PM 43.6786 -103.1117 78° East 460 529 41,000  Level Denver Center
06:30PM 43.7042 -102.9469 78° East 459 528 41,000  Level Denver Center
06:31PM 43.7336 -102.7511 78° East 463 533 41,000  Level Denver Center
06:32PM 43.7592 -102.5842 78° East 464 534 41,000  Level Denver Center
06:33PM 43.7869 -102.3875 79° East 465 535 41,000  Level Denver Center
06:34PM 43.8128 -102.2208 78° East 464 534 41,000  Level Denver Center
06:35PM 43.8394 -102.0394 78° East 468 539 41,000  Level Denver Center
06:36PM 43.8644 -101.8625 79° East 469 540 41,000  Level Denver Center
06:37PM 43.8897 -101.6856 79° East 470 541 41,000  Level Denver Center
06:38PM 43.9203 -101.4703 79° East 475 547 41,000  Level Denver Center
06:39PM 43.9367 -101.3653 78° East 473 544 41,000  Level Minneapolis Center
06:40PM 43.9614 -101.1856 79° East 474 545 41,000  Level Minneapolis Center
06:41PM 43.9858 -101.0056 79° East 475 547 41,000  Level Minneapolis Center
06:42PM 44.0100 -100.8267 79° East 475 547 41,000  Level Minneapolis Center
06:43PM 44.0383 -100.6106 80° East 475 547 41,000  Level Minneapolis Center
06:44PM 44.0614 -100.4292 80° East 478 550 41,000  Level Minneapolis Center
06:45PM 44.0850 -100.2500 80° East 475 547 41,000  Level Minneapolis Center
06:46PM 44.1083 -100.0706 80° East 474 545 41,000  Level Minneapolis Center
06:47PM 44.1306 -99.8894 80° East 477 549 41,000  Level Minneapolis Center
06:48PM 44.1536 -99.7100 80° East 475 547 41,000  Level Minneapolis Center
06:49PM 44.1758 -99.5294 80° East 476 548 41,000  Level Minneapolis Center
06:50PM 44.2019 -99.3136 80° East 474 545 41,000  Level Minneapolis Center
06:51PM 44.2231 -99.1344 81° East 473 544 41,000  Level Minneapolis Center
06:52PM 44.2439 -98.9525 81° East 475 547 41,000  Level Minneapolis Center
06:53PM 44.2656 -98.7711 80° East 476 548 41,000  Level Minneapolis Center
06:54PM 44.2911 -98.5531 81° East 477 549 41,000  Level Minneapolis Center
06:55PM 44.3108 -98.3711 81° East 476 548 41,000  Level Minneapolis Center
06:56PM 44.3308 -98.2033 80° East 480 552 41,000  Level Minneapolis Center
06:57PM 44.3550 -97.9828 81° East 480 552 41,000  Level Minneapolis Center
06:58PM 44.3739 -97.7981 82° East 481 554 41,000  Level Minneapolis Center
06:59PM 44.3925 -97.6133 82° East 481 554 41,000  Level Minneapolis Center
07:00PM 44.4128 -97.4300 81° East 479 551 41,000  Level Minneapolis Center
07:01PM 44.4322 -97.2467 81° East 477 549 41,000  Level Minneapolis Center
07:02PM 44.4458 -97.0986 83° East 478 550 41,000  Level Minneapolis Center
07:04PM 44.4708 -96.8417 82° East 476 548 41,000  Level Minneapolis Center
07:05PM 44.4892 -96.6594 82° East 472 543 41,000  Level Minneapolis Center
07:06PM 44.5069 -96.4767 82° East 472 543 41,000  Level Minneapolis Center
07:07PM 44.5286 -96.2567 82° East 471 542 41,000  Level Minneapolis Center
07:08PM 44.5442 -96.0722 83° East 472 543 41,000  Level Minneapolis Center
07:09PM 44.5608 -95.8883 83° East 472 543 41,000  Level Minneapolis Center
07:10PM 44.5764 -95.7044 83° East 474 545 41,000  Level Minneapolis Center
07:11PM 44.5922 -95.5211 83° East 473 544 41,000  Level Minneapolis Center
07:12PM 44.6111 -95.3019 83° East 472 543 41,000  Level Minneapolis Center
07:13PM 44.6264 -95.1181 83° East 474 545 41,000  Level Minneapolis Center
07:14PM 44.6419 -94.9353 83° East 473 544 41,000 -240 Level Minneapolis Center
07:15PM 44.6558 -94.7522 84° East 473 544 40,600 -1,440 Descending Minneapolis Center
07:16PM 44.6694 -94.5514 84° East 473 544 38,100 -2,160 Descending Minneapolis Center
07:17PM 44.6842 -94.3681 83° East 474 545 36,200 -2,040 Descending Minneapolis Center
07:18PM 44.6978 -94.1881 84° East 466 536 34,000 -2,340 Descending Minneapolis Center
07:19PM 44.7117 -94.0069 84° East 468 539 31,400 -2,520 Descending Minneapolis Center
07:20PM 44.7244 -93.8283 84° East 463 533 28,900 -2,700 Descending Minneapolis Center
07:21PM 44.7397 -93.6181 84° East 453 521 25,900 -2,400 Descending Minneapolis Center
07:22PM 44.7519 -93.4403 84° East 456 525 24,000 -960 Descending Minneapolis Center
07:23PM 44.7628 -93.2822 84° East 453 521 24,000 -1,020 Level Minneapolis Center
07:24PM 44.7758 -93.0747 85° East 451 519 21,900 -2,280 Descending Minneapolis Center
07:25PM 44.7858 -92.9081 85° East 439 505 19,400 -2,460 Descending Minneapolis Center
07:26PM 44.7961 -92.7436 85° East 428 493 16,900 -2,400 Descending Minneapolis Center
07:28PM 44.8050 -92.5942 85° East 388 447 14,400 -2,280 Descending Minneapolis Center
07:29PM 44.8133 -92.4539 85° East 364 419 12,200 -1,260 Descending Minneapolis Center
07:30PM 44.8222 -92.2989 85° East 334 384 11,900 -900 Descending Minneapolis Center
07:31PM 44.8292 -92.1731 86° East 323 372 10,400 -1,740 Descending Minneapolis Center
07:32PM 44.8356 -92.0608 85° East 291 335 8,400 -2,040 Descending Minneapolis Center
07:33PM 44.8417 -91.9522 85° East 279 321 6,200 -1,980 Descending Minneapolis Center
07:34PM 44.8464 -91.8497 86° East 266 306 4,400 -1,560 Descending Minneapolis Center
07:35PM 44.8458 -91.7492 90° East 261 300 3,000 -720 Descending Minneapolis Center
07:36PM 44.8336 -91.6486 100° East 254 292 3,000  Level Minneapolis Center
07:38PM 44.8500 -91.4833 90° East  Level FlightAware Approximate
07:45PM 44.8658 -91.4843 90° East  Level Estimated
07:46PM 44.8658 -91.4843 90° East  Level Estimated
07:47PM 44.8658 -91.4843 90° East  Level Estimated
07:48PM 44.8658 -91.4843 90° East  Level Estimated